Alex, Oklahoma
Current Conditions -  °F | °C
As of 9:15 AM on Thursday 23 Oct 2014 (Local Time) from KOUN Reporting Station
Overcast Overcast  
Wind Chill: 59°   Ceiling: 6000
Heat Index: 59°   Visibility: 10mi
Dew Point: 57°   Wind: 9mph
Humidity: 94%   Direction: 160°SSE
Pressure: 30.15"   Gusts: NA
Location:  34.91°N, 97.78°W
Report Text: KOUN 231415Z AUTO 16008KT 10SM BKN060 OVC090 15/14 A3015 RMK AO2
Loading
Personal Weather Stations






























Interactive Weather Map
Tropical Storm Tracking
New forecast layout! Learn more

10-Day Weather Forecast

Advertisements
Track Severe Weather on mobile